Time;durP1;ratioP1;P1;durP2;ratioP2;P2;SDS_P1;SDS_P2;PMS_P1;PMS_P2;Temp;Humidity;BMP_temperature;BMP_pressure;BME280_temperature;BME280_humidity;BME280_pressure;Samples;Min_cycle;Max_cycle;Signal;HPM_P1;HPM_P2
2022/08/04 00:01:23;;;;;;;9.10;5.92;;;;;;;23.02;76.07;99692.00;1754785;80;21496;-58
2022/08/04 00:03:56;;;;;;;;;;;;;;;22.94;76.33;99698.09;1749966;80;21654;-58
2022/08/04 00:07:06;;;;;;;6.50;5.80;;;;;;;22.97;76.89;99696.11;1750215;80;20169;-59
2022/08/04 00:09:53;;;;;;;7.90;6.35;;;;;;;23.00;76.40;99697.14;1750480;80;21546;-58
2022/08/04 00:12:20;;;;;;;9.65;6.58;;;;;;;22.98;76.48;99707.16;1752290;80;21692;-59
2022/08/04 00:14:50;;;;;;;9.78;7.05;;;;;;;23.02;76.08;99705.41;1739481;80;21511;-59
2022/08/04 00:17:23;;;;;;;7.25;6.10;;;;;;;23.04;75.77;99692.73;1756752;80;21495;-59
2022/08/04 00:20:00;;;;;;;7.17;5.83;;;;;;;23.01;75.82;99690.80;1755337;80;21495;-59
2022/08/04 00:22:27;;;;;;;;;;;;;;;22.97;75.96;99697.45;1753176;80;21537;-59
2022/08/04 00:24:55;;;;;;;9.50;5.40;;;;;;;22.94;76.09;99695.41;1756659;80;20443;-60
2022/08/04 00:27:21;;;;;;;7.85;5.40;;;;;;;22.90;75.97;99699.34;1752081;80;21804;-58
2022/08/04 00:29:48;;;;;;;9.10;5.50;;;;;;;23.04;75.41;99700.78;1760244;80;21418;-59
2022/08/04 00:32:15;;;;;;;5.80;5.40;;;;;;;22.98;75.65;99704.02;1738690;80;21533;-58
2022/08/04 00:34:42;;;;;;;6.90;5.67;;;;;;;22.98;75.65;99704.02;1746781;80;21856;-59
2022/08/04 00:37:08;;;;;;;8.08;5.12;;;;;;;22.85;75.64;99705.65;1745954;80;21503;-59
2022/08/04 00:39:35;;;;;;;7.95;5.60;;;;;;;22.83;75.88;99704.95;1714251;82;21539;-59
2022/08/04 00:42:14;;;;;;;6.00;5.40;;;;;;;22.75;75.80;99703.45;1749031;80;21420;-60
2022/08/04 00:45:27;;;;;;;5.80;5.30;;;;;;;22.97;75.42;99700.12;1677550;80;21432;-58
2022/08/04 00:48:11;;;;;;;5.83;5.10;;;;;;;23.10;74.73;99693.99;1746497;80;21791;-58
2022/08/04 00:51:05;;;;;;;5.45;4.80;;;;;;;22.91;74.53;99701.05;1746931;80;21482;-59
2022/08/04 00:54:25;;;;;;;7.30;5.65;;;;;;;22.91;74.53;99701.05;1741913;80;21543;-59
2022/08/04 00:57:19;;;;;;;5.83;4.92;;;;;;;22.73;75.49;99708.11;1749930;80;20950;-59
2022/08/04 01:00:09;;;;;;;8.70;5.35;;;;;;;22.63;75.91;99701.42;1760694;80;21505;-59
2022/08/04 01:03:16;;;;;;;7.70;4.95;;;;;;;22.86;75.50;99699.28;1755898;80;21856;-60
2022/08/04 01:06:22;;;;;;;6.62;5.00;;;;;;;22.87;74.94;99696.97;1746273;80;21077;-60
2022/08/04 01:09:33;;;;;;;9.85;4.37;;;;;;;22.59;75.82;99693.33;1736825;80;21595;-59
2022/08/04 01:12:17;;;;;;;5.10;4.60;;;;;;;22.59;75.82;99693.33;1749566;80;21056;-59
2022/08/04 01:15:07;;;;;;;5.15;4.60;;;;;;;22.78;75.54;99701.84;1733686;80;21429;-59
2022/08/04 01:17:57;;;;;;;4.87;4.37;;;;;;;22.66;75.90;99713.69;1728907;82;22107;-59
2022/08/04 01:20:25;;;;;;;7.45;4.58;;;;;;;22.70;75.48;99719.98;1747349;80;21499;-59
2022/08/04 01:23:14;;;;;;;;;;;;;;;22.70;75.48;99719.98;1760400;80;21528;-59
2022/08/04 01:26:02;;;;;;;9.20;4.65;;;;;;;22.75;75.69;99723.55;1755972;80;20408;-59
2022/08/04 01:28:44;;;;;;;6.40;4.15;;;;;;;22.72;75.65;99722.52;1724951;80;21622;-59
2022/08/04 01:31:20;;;;;;;9.18;5.05;;;;;;;22.85;75.26;99716.84;1745441;80;21896;-59
2022/08/04 01:33:47;;;;;;;5.40;4.90;;;;;;;22.85;74.99;99719.05;1690889;83;21022;-59
2022/08/04 01:36:14;;;;;;;6.47;4.92;;;;;;;22.93;74.55;99715.15;1751088;80;21558;-59
2022/08/04 01:38:40;;;;;;;4.92;4.58;;;;;;;22.87;74.50;99712.22;1747523;80;21415;-60
2022/08/04 01:41:11;;;;;;;4.80;4.47;;;;;;;22.87;74.50;99712.22;1758953;80;21468;-59
2022/08/04 01:43:43;;;;;;;5.12;4.62;;;;;;;22.77;75.16;99723.42;1760940;80;21515;-59
2022/08/04 01:46:12;;;;;;;5.85;4.55;;;;;;;22.79;75.37;99716.92;1752781;80;21417;-59
2022/08/04 01:48:40;;;;;;;4.83;4.40;;;;;;;22.81;75.49;99713.63;1757017;80;21382;-59
2022/08/04 01:51:07;;;;;;;;;;;;;;;22.86;75.38;99717.21;1747615;80;21460;-58
2022/08/04 01:53:40;;;;;;;8.18;5.58;;;;;;;22.82;75.73;99719.33;1754119;80;20458;-58
2022/08/04 01:56:08;;;;;;;11.38;4.70;;;;;;;22.82;75.78;99720.66;1746200;80;21787;-59
2022/08/04 01:58:36;;;;;;;6.65;5.40;;;;;;;22.81;75.76;99717.65;1754566;80;21491;-59
2022/08/04 02:01:08;;;;;;;7.78;5.55;;;;;;;22.94;75.44;99720.01;1749758;80;21534;-58
2022/08/04 02:03:39;;;;;;;7.72;5.37;;;;;;;22.96;75.12;99712.66;1743487;80;21465;-58
2022/08/04 02:06:30;;;;;;;5.70;5.20;;;;;;;22.94;75.04;99714.64;1758642;80;21519;-59
2022/08/04 02:09:17;;;;;;;6.78;5.35;;;;;;;23.07;74.61;99704.99;1745024;80;21898;-58
2022/08/04 02:11:50;;;;;;;8.63;5.40;;;;;;;23.07;74.61;99704.99;1752602;80;21506;-58
2022/08/04 02:14:40;;;;;;;5.97;5.35;;;;;;;23.09;74.57;99708.38;1746099;80;21578;-59
2022/08/04 02:17:20;;;;;;;7.58;6.10;;;;;;;23.03;74.67;99704.91;1759032;80;21465;-59
2022/08/04 02:20:22;;;;;;;6.53;5.80;;;;;;;23.03;74.67;99704.91;1752540;80;21558;-58
2022/08/04 02:23:02;;;;;;;10.45;5.92;;;;;;;23.08;74.68;99710.22;1752224;80;21491;-60
2022/08/04 02:25:35;;;;;;;8.43;6.08;;;;;;;23.08;74.68;99710.22;1756748;80;21549;-59
2022/08/04 02:28:16;;;;;;;6.30;5.70;;;;;;;23.10;74.67;99710.08;1739095;80;21570;-59
2022/08/04 02:31:09;;;;;;;7.40;6.80;;;;;;;23.12;74.54;99703.57;1752535;80;21496;-59
2022/08/04 02:33:40;;;;;;;6.85;5.72;;;;;;;23.14;74.40;99708.80;1760911;80;21047;-58
2022/08/04 02:36:10;;;;;;;8.95;6.25;;;;;;;23.13;74.46;99712.45;1758070;80;21876;-59
2022/08/04 02:38:48;;;;;;;7.08;6.10;;;;;;;23.09;74.79;99711.92;1760050;80;21546;-59
2022/08/04 02:41:16;;;;;;;6.00;5.50;;;;;;;23.26;74.24;99702.76;1761664;80;21594;-59
2022/08/04 02:43:43;;;;;;;6.75;6.25;;;;;;;23.19;74.41;99699.83;1751595;80;21455;-58
2022/08/04 02:46:09;;;;;;;8.28;6.97;;;;;;;23.11;75.02;99700.55;1761994;80;21417;-59
2022/08/04 02:48:36;;;;;;;10.20;6.78;;;;;;;23.12;75.20;99708.94;1742881;79;21796;-59
2022/08/04 02:51:03;;;;;;;9.55;7.22;;;;;;;23.15;75.16;99709.63;1721195;80;21451;-59
2022/08/04 02:53:33;;;;;;;9.45;7.40;;;;;;;23.16;75.03;99698.77;1727910;80;21367;-59
2022/08/04 02:56:00;;;;;;;8.18;7.35;;;;;;;23.50;73.51;99681.63;1739436;80;21448;-59
2022/08/04 02:58:27;;;;;;;7.95;7.15;;;;;;;23.50;73.51;99681.63;1745911;80;21622;-59
2022/08/04 03:00:54;;;;;;;9.13;7.20;;;;;;;23.69;72.68;99685.22;1734671;80;21836;-58
2022/08/04 03:04:04;;;;;;;7.92;7.25;;;;;;;23.67;72.65;99677.31;1736860;80;21477;-59
2022/08/04 03:07:00;;;;;;;9.35;8.35;;;;;;;23.65;72.78;99676.62;1742422;80;21429;-59
2022/08/04 03:09:57;;;;;;;8.38;6.90;;;;;;;23.80;72.16;99674.81;1738083;80;21587;-58
2022/08/04 03:12:53;;;;;;;8.08;7.37;;;;;;;23.79;72.16;99669.95;1696552;82;21649;-58
2022/08/04 03:15:39;;;;;;;10.28;7.80;;;;;;;23.86;72.25;99669.67;1746969;80;21840;-60
2022/08/04 03:18:34;;;;;;;8.93;8.03;;;;;;;23.75;72.51;99673.03;1697426;83;21593;-60
2022/08/04 03:21:27;;;;;;;9.03;8.23;;;;;;;23.75;72.51;99673.03;1696573;83;21466;-61
2022/08/04 03:24:47;;;;;;;9.05;8.08;;;;;;;23.72;72.51;99679.56;1734345;80;21463;-60
2022/08/04 03:27:37;;;;;;;10.55;8.95;;;;;;;23.70;72.42;99681.05;1738562;80;21431;-60
2022/08/04 03:30:18;;;;;;;9.63;8.75;;;;;;;23.73;72.65;99681.73;1734535;80;21822;-59
2022/08/04 03:33:18;;;;;;;12.55;9.23;;;;;;;23.73;72.65;99681.73;1733181;80;21648;-58
2022/08/04 03:35:59;;;;;;;11.85;8.43;;;;;;;23.79;72.71;99686.06;1693259;83;21455;-59
2022/08/04 03:39:05;;;;;;;9.18;8.38;;;;;;;23.80;72.46;99682.36;1698211;82;21557;-59
2022/08/04 03:41:49;;;;;;;9.33;8.35;;;;;;;23.80;72.46;99682.36;1670151;83;21462;-59
2022/08/04 03:44:27;;;;;;;10.65;9.70;;;;;;;23.80;72.92;99684.21;1689540;83;21880;-59
2022/08/04 03:47:16;;;;;;;10.72;9.68;;;;;;;23.83;73.06;99678.05;1691148;82;21507;-59
2022/08/04 03:50:13;;;;;;;12.15;10.30;;;;;;;23.89;73.15;99678.78;1712133;82;21555;-59
2022/08/04 03:53:09;;;;;;;13.78;9.58;;;;;;;23.87;72.82;99686.14;1712539;81;21480;-60
2022/08/04 03:55:59;;;;;;;14.65;10.20;;;;;;;23.92;72.77;99688.36;1658031;82;22518;-59
2022/08/04 03:58:37;;;;;;;12.78;9.95;;;;;;;23.95;72.68;99691.27;1728078;81;21813;-59
2022/08/04 04:01:22;;;;;;;11.55;9.18;;;;;;;23.96;72.86;99692.47;1719694;82;21507;-59
2022/08/04 04:04:32;;;;;;;12.65;11.05;;;;;;;24.00;72.72;99699.22;1711228;81;21491;-59
2022/08/04 04:07:33;;;;;;;13.15;9.73;;;;;;;23.99;72.56;99696.67;1720330;81;21544;-59
2022/08/04 04:10:30;;;;;;;11.00;9.88;;;;;;;23.81;73.24;99708.70;1731889;81;21484;-60
2022/08/04 04:13:25;;;;;;;12.05;10.00;;;;;;;23.81;73.48;99706.88;1692181;82;21772;-59
2022/08/04 04:16:24;;;;;;;13.10;9.53;;;;;;;23.85;73.58;99710.12;1722108;81;20949;-59
2022/08/04 04:19:14;;;;;;;11.22;10.08;;;;;;;23.87;73.40;99711.65;1722484;81;21459;-59
2022/08/04 04:22:15;;;;;;;11.93;10.28;;;;;;;23.91;73.21;99710.86;1716527;81;21624;-60
2022/08/04 04:24:50;;;;;;;14.05;10.70;;;;;;;23.94;73.14;99720.44;1727644;81;20944;-59
2022/08/04 04:27:41;;;;;;;12.93;9.95;;;;;;;23.97;73.07;99714.27;1725027;81;21780;-60
2022/08/04 04:30:15;;;;;;;11.20;10.13;;;;;;;24.01;72.94;99708.95;1720670;81;21535;-60
2022/08/04 04:32:59;;;;;;;12.18;11.00;;;;;;;24.04;72.78;99715.37;1721549;81;21430;-60
2022/08/04 04:35:39;;;;;;;19.92;11.00;;;;;;;24.10;72.42;99709.89;1728706;81;21572;-60
2022/08/04 04:38:12;;;;;;;11.80;10.63;;;;;;;24.14;71.80;99699.69;1717470;82;21488;-60
2022/08/04 04:41:05;;;;;;;15.03;11.12;;;;;;;24.20;72.41;99705.28;1721032;81;21885;-60
2022/08/04 04:44:16;;;;;;;13.13;10.95;;;;;;;24.25;72.39;99709.71;1724098;81;21052;-59
2022/08/04 04:46:57;;;;;;;12.33;10.98;;;;;;;24.40;71.87;99708.69;1727479;81;21428;-61
2022/08/04 04:49:48;;;;;;;12.50;11.22;;;;;;;24.45;71.59;99703.70;1759589;80;21569;-60
2022/08/04 04:52:29;;;;;;;17.00;10.65;;;;;;;24.43;72.12;99711.55;1759278;80;21020;-60
2022/08/04 04:55:21;;;;;;;12.10;10.53;;;;;;;24.50;71.96;99705.92;1750283;80;21838;-61
2022/08/04 04:57:50;;;;;;;11.90;10.72;;;;;;;24.57;71.86;99705.69;1773479;80;21617;-60
2022/08/04 05:00:17;;;;;;;11.43;10.32;;;;;;;24.60;71.89;99708.55;1759589;80;21527;-60
2022/08/04 05:03:21;;;;;;;11.10;10.00;;;;;;;24.61;71.22;99703.03;1766256;80;21549;-60
2022/08/04 05:06:05;;;;;;;11.75;9.95;;;;;;;24.66;70.81;99705.27;1759574;80;21718;-61
2022/08/04 05:09:10;;;;;;;10.50;9.43;;;;;;;24.62;70.56;99702.52;1767911;80;22173;-61
2022/08/04 05:11:58;;;;;;;11.57;10.58;;;;;;;24.63;70.71;99705.56;1766611;80;21553;-60
2022/08/04 05:14:32;;;;;;;10.30;9.38;;;;;;;24.68;70.60;99702.76;1759692;80;21494;-60
2022/08/04 05:17:39;;;;;;;10.58;9.60;;;;;;;24.73;70.43;99703.63;1769095;80;21006;-61
2022/08/04 05:20:11;;;;;;;9.65;8.80;;;;;;;24.82;69.86;99698.66;1766609;80;21548;-61
2022/08/04 05:23:20;;;;;;;10.35;9.20;;;;;;;24.68;69.70;99707.30;1766602;80;22154;-60
2022/08/04 05:26:04;;;;;;;11.45;9.33;;;;;;;24.65;69.75;99712.97;1746249;80;21540;-61
2022/08/04 05:28:38;;;;;;;10.23;9.43;;;;;;;24.60;69.75;99710.77;1772264;80;21441;-61
2022/08/04 05:31:09;;;;;;;13.30;9.68;;;;;;;24.59;69.82;99712.25;1758697;80;21575;-60
2022/08/04 05:33:51;;;;;;;10.65;9.55;;;;;;;24.63;69.86;99712.28;1768141;80;21006;-60
2022/08/04 05:36:21;;;;;;;10.78;9.78;;;;;;;24.69;69.79;99714.34;1758376;80;21599;-60
2022/08/04 05:38:53;;;;;;;10.65;9.63;;;;;;;24.74;69.70;99716.08;1755093;80;20984;-61
2022/08/04 05:41:20;;;;;;;10.08;9.03;;;;;;;24.81;69.72;99723.88;1755019;80;21519;-61
2022/08/04 05:43:47;;;;;;;11.25;9.48;;;;;;;24.89;69.31;99715.53;1768578;80;28421;-59
2022/08/04 05:46:14;;;;;;;12.75;9.88;;;;;;;25.01;69.23;99714.27;1766021;80;21549;-60
2022/08/04 05:48:40;;;;;;;11.83;9.30;;;;;;;25.13;68.95;99713.02;1752897;80;21809;-60
2022/08/04 05:51:09;;;;;;;10.47;9.40;;;;;;;25.25;68.67;99713.63;1749220;80;21546;-61
2022/08/04 05:53:36;;;;;;;10.00;9.08;;;;;;;25.40;68.87;99712.53;1740124;80;21560;-60
2022/08/04 05:56:04;;;;;;;12.58;10.00;;;;;;;25.47;68.06;99703.30;1760031;80;20962;-60
2022/08/04 05:58:30;;;;;;;11.33;10.10;;;;;;;25.55;67.78;99694.78;1744905;80;21438;-60
2022/08/04 06:01:56;;;;;;;15.75;10.80;;;;;;;24.59;72.17;99723.01;1783132;78;22950;-60
2022/08/04 06:04:26;;;;;;;12.43;11.20;;;;;;;24.78;70.48;99716.61;1764061;80;21679;-60
2022/08/04 06:06:52;;;;;;;12.00;11.00;;;;;;;24.71;70.60;99727.64;1760588;79;21911;-61
2022/08/04 06:09:19;;;;;;;12.30;11.05;;;;;;;24.65;70.70;99730.45;1769107;79;21872;-61
2022/08/04 06:11:45;;;;;;;11.48;10.32;;;;;;;24.64;70.58;99729.61;1773631;79;21513;-60
2022/08/04 06:14:12;;;;;;;13.45;12.15;;;;;;;24.75;70.06;99728.53;1765284;79;21526;-60
2022/08/04 06:16:45;;;;;;;12.65;11.25;;;;;;;24.76;69.57;99727.52;1761998;80;21470;-60
2022/08/04 06:19:12;;;;;;;18.12;11.18;;;;;;;24.66;69.95;99730.30;1770960;79;21788;-63
2022/08/04 06:21:42;;;;;;;11.30;10.38;;;;;;;24.65;69.90;99731.79;1774522;79;21508;-60
2022/08/04 06:24:13;;;;;;;12.63;11.63;;;;;;;24.62;70.37;99736.12;1767118;79;21448;-59
2022/08/04 06:26:39;;;;;;;11.80;10.75;;;;;;;24.47;70.64;99740.67;1752866;79;20970;-60
2022/08/04 06:29:15;;;;;;;12.58;11.05;;;;;;;24.51;70.99;99743.06;1766733;80;21472;-61
2022/08/04 06:31:56;;;;;;;12.95;11.68;;;;;;;24.54;70.87;99744.11;1767159;80;21628;-60
2022/08/04 06:34:15;;;;;;;16.50;11.88;;;;;;;24.67;70.02;99734.66;1763942;80;21682;-60
2022/08/04 06:36:42;;;;;;;13.60;12.30;;;;;;;24.72;69.47;99736.89;1767803;79;21088;-60
2022/08/04 06:39:09;;;;;;;15.23;12.05;;;;;;;24.78;69.02;99732.75;1771089;79;21495;-60
2022/08/04 06:41:36;;;;;;;13.10;11.90;;;;;;;24.97;68.78;99730.38;1764458;80;21573;-63
2022/08/04 06:44:06;;;;;;;12.73;11.47;;;;;;;25.09;68.59;99722.41;1770181;80;21968;-60
2022/08/04 06:46:36;;;;;;;15.38;11.22;;;;;;;25.17;68.61;99716.23;1767478;79;21433;-61
2022/08/04 06:49:03;;;;;;;11.68;10.48;;;;;;;25.36;68.39;99721.42;1771657;80;21447;-60
2022/08/04 06:51:32;;;;;;;13.80;11.45;;;;;;;25.63;67.44;99719.03;1768988;79;26905;-60
2022/08/04 06:53:58;;;;;;;13.03;11.57;;;;;;;25.59;66.78;99717.67;1765829;80;21574;-61
2022/08/04 06:56:25;;;;;;;12.88;11.15;;;;;;;25.60;67.17;99721.23;1775535;79;21859;-60
2022/08/04 06:58:52;;;;;;;14.90;10.98;;;;;;;25.68;66.37;99713.18;1771785;79;20953;-60
2022/08/04 07:01:19;;;;;;;13.55;10.90;;;;;;;25.76;66.19;99708.33;1730200;80;21495;-60
2022/08/04 07:03:47;;;;;;;13.13;11.53;;;;;;;25.90;65.97;99704.16;1749161;80;21548;-60
2022/08/04 07:06:14;;;;;;;12.15;11.05;;;;;;;25.98;66.03;99709.11;1745278;80;21475;-60
2022/08/04 07:08:41;;;;;;;13.60;12.20;;;;;;;26.20;64.38;99695.54;1752760;80;21404;-61
2022/08/04 07:11:07;;;;;;;12.00;10.80;;;;;;;26.00;64.72;99704.92;1749521;81;21491;-62
2022/08/04 07:13:35;;;;;;;11.57;10.23;;;;;;;26.01;65.23;99708.80;1755032;81;21425;-61
2022/08/04 07:16:02;;;;;;;12.75;11.53;;;;;;;26.04;65.26;99706.27;1749333;80;21452;-61
2022/08/04 07:18:31;;;;;;;13.28;11.93;;;;;;;26.08;65.54;99710.31;1743513;80;21582;-60
2022/08/04 07:20:57;;;;;;;13.85;11.40;;;;;;;26.12;64.45;99708.97;1744661;80;22042;-60
2022/08/04 07:23:25;;;;;;;11.95;10.75;;;;;;;26.16;63.95;99706.80;1754620;80;20962;-60
2022/08/04 07:26:15;;;;;;;12.00;10.82;;;;;;;26.15;63.96;99703.27;1752687;80;21544;-60
2022/08/04 07:28:41;;;;;;;12.78;11.03;;;;;;;26.16;63.92;99704.97;1646775;85;21447;-61
2022/08/04 07:31:15;;;;;;;12.43;11.18;;;;;;;26.28;64.38;99706.00;1647211;85;21491;-63
2022/08/04 07:33:41;;;;;;;14.40;11.03;;;;;;;26.35;64.44;99710.56;1647070;86;21771;-61
2022/08/04 07:36:08;;;;;;;13.98;10.82;;;;;;;26.48;64.24;99707.34;1650613;85;21456;-61
2022/08/04 07:38:35;;;;;;;12.10;11.03;;;;;;;26.46;63.61;99702.63;1647581;85;21478;-61
2022/08/04 07:41:04;;;;;;;12.82;10.05;;;;;;;26.47;63.75;99701.64;1647666;86;21549;-61
2022/08/04 07:43:30;;;;;;;11.80;10.75;;;;;;;26.55;63.42;99700.28;1646720;84;22054;-61
2022/08/04 07:45:57;;;;;;;14.23;11.40;;;;;;;26.59;62.99;99696.75;1648745;84;21909;-61
2022/08/04 07:48:23;;;;;;;12.15;10.95;;;;;;;26.70;62.47;99693.75;1583501;89;21629;-65
2022/08/04 07:50:51;;;;;;;16.03;11.93;;;;;;;26.81;62.66;99696.63;1599082;87;21531;-62
2022/08/04 07:53:17;;;;;;;11.88;10.60;;;;;;;26.90;61.76;99693.39;1648062;84;21556;-62
2022/08/04 07:55:45;;;;;;;12.43;10.90;;;;;;;26.97;61.13;99690.36;1615835;86;21616;-62
2022/08/04 07:58:11;;;;;;;11.18;9.83;;;;;;;26.99;60.53;99687.84;1612594;86;21855;-65
2022/08/04 08:00:38;;;;;;;10.68;9.88;;;;;;;27.00;60.68;99685.98;1611995;86;21538;-62
2022/08/04 08:03:05;;;;;;;10.60;9.70;;;;;;;27.14;60.07;99679.03;1614235;86;21065;-62
2022/08/04 08:05:32;;;;;;;13.63;10.13;;;;;;;27.17;60.13;99682.23;1583697;88;21159;-62
2022/08/04 08:07:59;;;;;;;11.00;9.83;;;;;;;27.28;59.59;99676.18;1616961;86;21042;-61
2022/08/04 08:10:26;;;;;;;10.82;9.85;;;;;;;27.28;59.83;99680.23;1624820;86;21794;-61
2022/08/04 08:12:53;;;;;;;10.83;9.60;;;;;;;27.24;60.32;99685.58;1607898;86;21650;-61
2022/08/04 08:15:20;;;;;;;11.67;10.30;;;;;;;27.28;60.42;99691.86;1617054;86;21577;-61
2022/08/04 08:17:46;;;;;;;11.33;9.93;;;;;;;27.37;60.20;99685.42;1618442;86;21591;-62
2022/08/04 08:20:13;;;;;;;11.38;10.35;;;;;;;27.30;59.46;99691.17;1610823;86;21551;-62
2022/08/04 08:22:40;;;;;;;13.10;11.75;;;;;;;27.23;59.74;99689.31;1602332;88;21965;-62
2022/08/04 08:25:07;;;;;;;11.83;10.58;;;;;;;27.20;60.03;99694.55;1609635;87;21545;-62
2022/08/04 08:27:34;;;;;;;11.57;10.50;;;;;;;27.22;59.66;99688.96;1614300;86;21628;-62
2022/08/04 08:30:00;;;;;;;11.15;10.08;;;;;;;27.28;58.98;99686.98;1624071;86;21538;-61
2022/08/04 08:32:27;;;;;;;12.60;10.23;;;;;;;27.61;58.65;99686.34;1623364;86;21549;-60
2022/08/04 08:34:53;;;;;;;10.90;9.80;;;;;;;27.55;58.87;99686.53;1659246;84;21779;-62
2022/08/04 08:37:46;;;;;;;12.80;10.85;;;;;;;27.56;58.33;99682.83;1661761;84;21405;-61
2022/08/04 08:40:48;;;;;;;13.05;10.38;;;;;;;27.58;57.98;99686.70;1621200;86;21640;-61
2022/08/04 08:43:38;;;;;;;12.82;11.63;;;;;;;27.63;58.35;99680.77;1621537;86;21614;-61
2022/08/04 08:46:31;;;;;;;13.48;11.25;;;;;;;27.66;58.41;99686.66;1661773;84;21600;-59
2022/08/04 08:49:25;;;;;;;13.60;12.35;;;;;;;27.67;57.40;99671.29;1653910;84;21932;-60
2022/08/04 08:52:30;;;;;;;11.28;10.23;;;;;;;27.71;57.16;99676.70;1658324;84;21559;-60
2022/08/04 08:55:38;;;;;;;11.43;10.18;;;;;;;27.76;57.92;99675.64;1659450;84;21514;-60
2022/08/04 08:58:32;;;;;;;13.65;10.63;;;;;;;27.95;57.69;99671.20;1643497;85;21670;-60
2022/08/04 09:01:07;;;;;;;12.03;10.40;;;;;;;28.12;57.47;99678.70;1654521;84;21450;-60
2022/08/04 09:04:09;;;;;;;10.50;9.60;;;;;;;28.19;56.08;99662.59;1657222;85;21733;-60
2022/08/04 09:06:55;;;;;;;13.05;10.75;;;;;;;28.29;55.80;99671.81;1652678;85;21573;-61
2022/08/04 09:09:44;;;;;;;11.50;10.40;;;;;;;28.29;55.52;99667.75;1613062;86;21495;-59
2022/08/04 09:12:31;;;;;;;13.18;10.45;;;;;;;28.19;55.79;99665.81;1618344;86;21428;-60
2022/08/04 09:15:17;;;;;;;11.83;10.72;;;;;;;28.09;55.51;99669.59;1627768;86;21452;-60
2022/08/04 09:18:10;;;;;;;11.30;10.18;;;;;;;28.05;55.29;99674.16;1657622;84;21945;-60
2022/08/04 09:21:01;;;;;;;12.25;9.95;;;;;;;28.10;55.61;99678.01;1649268;84;21632;-60
2022/08/04 09:23:54;;;;;;;13.20;10.20;;;;;;;28.15;55.46;99667.52;1621178;86;21617;-61
2022/08/04 09:26:40;;;;;;;11.88;10.88;;;;;;;28.24;55.65;99677.77;1653188;84;21016;-61
2022/08/04 09:29:33;;;;;;;10.98;9.93;;;;;;;28.25;55.37;99671.33;1639406;84;21110;-61
2022/08/04 09:32:56;;;;;;;12.68;10.18;;;;;;;28.22;55.69;99679.81;1657036;84;21840;-60
2022/08/04 09:35:32;;;;;;;10.60;9.60;;;;;;;28.27;54.99;99673.86;1659322;84;21025;-61
2022/08/04 09:38:42;;;;;;;10.45;9.35;;;;;;;28.23;54.64;99676.08;1655499;84;21563;-60
2022/08/04 09:41:39;;;;;;;11.65;10.05;;;;;;;28.01;55.90;99685.00;1626465;86;21693;-58
2022/08/04 09:44:17;;;;;;;10.98;9.88;;;;;;;28.10;55.30;99677.17;1653115;84;21036;-61
2022/08/04 09:47:05;;;;;;;10.63;9.55;;;;;;;28.21;55.90;99682.17;1642952;84;21920;-58
2022/08/04 09:49:55;;;;;;;14.68;9.85;;;;;;;28.30;55.35;99681.62;1645026;86;21507;-59
2022/08/04 09:52:55;;;;;;;10.55;9.40;;;;;;;28.39;55.16;99678.33;1650536;84;21748;-60
2022/08/04 09:55:49;;;;;;;10.40;9.13;;;;;;;28.40;54.59;99680.02;1647481;84;21415;-59
2022/08/04 09:59:11;;;;;;;11.15;9.40;;;;;;;28.37;54.97;99682.59;1633197;86;20971;-59
2022/08/04 10:01:38;;;;;;;12.75;9.65;;;;;;;28.33;54.56;99679.40;1650458;84;22090;-59
2022/08/04 10:04:08;;;;;;;13.72;9.70;;;;;;;28.35;52.74;99665.70;1649021;84;21491;-59
2022/08/04 10:07:01;;;;;;;13.00;10.25;;;;;;;28.45;53.72;99662.75;1652573;84;21578;-59
2022/08/04 10:09:51;;;;;;;12.53;8.75;;;;;;;28.56;52.82;99662.36;1646193;86;21542;-60
2022/08/04 10:12:57;;;;;;;12.30;9.68;;;;;;;28.55;52.23;99657.95;1699619;83;21582;-60
2022/08/04 10:15:43;;;;;;;10.05;9.08;;;;;;;28.63;52.65;99666.02;1694022;82;22221;-62
2022/08/04 10:18:58;;;;;;;11.45;9.60;;;;;;;28.71;52.25;99655.64;1711187;81;21470;-60
2022/08/04 10:21:33;;;;;;;9.70;8.80;;;;;;;29.08;51.25;99660.18;1694629;82;21522;-61
2022/08/04 10:24:14;;;;;;;13.55;9.88;;;;;;;29.02;51.25;99651.95;1697772;83;21485;-61
2022/08/04 10:27:22;;;;;;;12.75;8.73;;;;;;;29.04;49.66;99645.31;1623975;86;21522;-59
2022/08/04 10:29:49;;;;;;;10.45;8.40;;;;;;;29.03;49.64;99645.52;1645069;85;21425;-59
2022/08/04 10:32:34;;;;;;;9.63;8.78;;;;;;;28.90;50.32;99654.27;1648266;85;21537;-59
2022/08/04 10:35:14;;;;;;;9.83;9.03;;;;;;;28.94;50.75;99654.23;1650438;84;21504;-60
2022/08/04 10:38:12;;;;;;;9.25;7.95;;;;;;;29.04;50.57;99646.66;1647191;85;21558;-60
2022/08/04 10:40:45;;;;;;;9.68;8.68;;;;;;;29.14;50.70;99642.87;1651300;85;21625;-60
2022/08/04 10:43:36;;;;;;;9.03;8.23;;;;;;;29.18;50.25;99645.05;1664916;84;22109;-60
2022/08/04 10:46:25;;;;;;;14.55;8.75;;;;;;;29.09;50.45;99644.77;1701271;82;21589;-60
2022/08/04 10:49:11;;;;;;;9.38;8.48;;;;;;;29.07;50.74;99648.18;1698665;82;21532;-59
2022/08/04 10:52:00;;;;;;;10.50;8.83;;;;;;;29.05;51.17;99651.06;1696942;81;21549;-59
2022/08/04 10:54:54;;;;;;;9.33;8.55;;;;;;;28.98;51.43;99647.94;1687095;83;22079;-60
2022/08/04 10:57:35;;;;;;;11.40;9.03;;;;;;;29.00;51.00;99645.36;1702223;81;21810;-61
2022/08/04 11:00:08;;;;;;;12.78;8.88;;;;;;;29.10;50.50;99640.53;1698100;82;21454;-60
2022/08/04 11:02:55;;;;;;;9.23;8.23;;;;;;;29.03;50.07;99634.70;1695755;82;21539;-60
2022/08/04 11:05:47;;;;;;;9.60;8.53;;;;;;;28.98;50.28;99628.47;1696233;83;21033;-59
2022/08/04 11:08:25;;;;;;;15.70;9.45;;;;;;;28.97;50.46;99630.87;1693390;82;21610;-59
2022/08/04 11:11:12;;;;;;;9.68;8.73;;;;;;;28.99;50.41;99632.01;1704190;82;22023;-60
2022/08/04 11:14:00;;;;;;;9.08;8.18;;;;;;;28.91;51.16;99631.09;1695349;83;21075;-60
2022/08/04 11:16:32;;;;;;;10.72;9.10;;;;;;;28.88;51.85;99627.91;1711768;82;21619;-60
2022/08/04 11:19:16;;;;;;;9.83;8.83;;;;;;;28.98;52.11;99627.12;1693672;82;21482;-60
2022/08/04 11:21:51;;;;;;;14.15;9.48;;;;;;;29.22;51.15;99630.11;1710748;81;21502;-59
2022/08/04 11:24:22;;;;;;;9.53;8.83;;;;;;;29.38;49.13;99616.04;1701497;82;22115;-60
2022/08/04 11:26:53;;;;;;;11.55;8.40;;;;;;;29.42;49.09;99609.20;1712003;82;21421;-60
2022/08/04 11:29:42;;;;;;;9.95;8.95;;;;;;;29.55;49.41;99605.31;1644007;85;21459;-60
2022/08/04 11:32:25;;;;;;;11.28;8.83;;;;;;;29.60;49.62;99608.30;1662140;84;21460;-59
2022/08/04 11:34:56;;;;;;;10.35;8.55;;;;;;;29.62;49.50;99608.94;1653496;84;21624;-59
2022/08/04 11:37:42;;;;;;;9.55;8.10;;;;;;;29.76;49.47;99609.12;1656542;84;21927;-59
2022/08/04 11:40:15;;;;;;;11.65;8.58;;;;;;;29.88;49.69;99603.55;1688864;82;21482;-59
2022/08/04 11:42:52;;;;;;;10.08;7.85;;;;;;;30.08;49.62;99599.66;1713056;82;21515;-59
2022/08/04 11:45:24;;;;;;;9.70;8.25;;;;;;;30.27;49.69;99597.67;1710945;82;21446;-59
2022/08/04 11:48:02;;;;;;;9.70;7.87;;;;;;;30.47;48.58;99590.25;1711207;82;21459;-63
2022/08/04 11:50:43;;;;;;;8.53;7.15;;;;;;;30.66;48.15;99581.94;1706034;82;21798;-58
2022/08/04 11:53:15;;;;;;;8.10;7.28;;;;;;;30.55;47.69;99580.59;1671520;84;21525;-60
2022/08/04 11:55:44;;;;;;;8.28;7.40;;;;;;;30.49;47.45;99582.75;1672350;83;21524;-60
2022/08/04 11:58:10;;;;;;;12.43;7.55;;;;;;;30.37;48.10;99581.63;1670230;84;21517;-59
2022/08/04 12:00:41;;;;;;;8.90;7.87;;;;;;;30.18;49.43;99592.06;1667425;85;21531;-60
2022/08/04 12:03:50;;;;;;;11.45;8.55;;;;;;;30.07;50.51;99605.61;1675465;84;21808;-60
2022/08/04 12:06:27;;;;;;;9.63;8.10;;;;;;;29.88;51.37;99600.84;1643366;84;21531;-59
2022/08/04 12:09:18;;;;;;;9.75;8.20;;;;;;;29.62;52.59;99612.17;1658861;84;21668;-59
2022/08/04 12:12:41;;;;;;;11.85;7.40;;;;;;;29.61;53.64;99612.70;1633594;86;21576;-59
2022/08/04 12:15:19;;;;;;;8.38;7.58;;;;;;;29.85;53.49;99614.23;1685923;83;21462;-60
2022/08/04 12:18:22;;;;;;;7.78;7.12;;;;;;;30.23;52.10;99602.31;1688503;83;21580;-59
2022/08/04 12:20:54;;;;;;;7.67;6.78;;;;;;;30.33;51.83;99596.58;1691255;83;21474;-60
2022/08/04 12:23:39;;;;;;;7.17;6.28;;;;;;;30.59;50.76;99591.41;1694874;83;21645;-59
2022/08/04 12:26:08;;;;;;;9.50;6.12;;;;;;;30.89;49.50;99576.23;1696941;82;21446;-59
2022/08/04 12:28:38;;;;;;;6.70;6.20;;;;;;;31.18;47.69;99571.11;1700469;83;21427;-60